Time;durP1;ratioP1;P1;durP2;ratioP2;P2;SDS_P1;SDS_P2;PMS_P1;PMS_P2;Temp;Humidity;BMP_temperature;BMP_pressure;BME280_temperature;BME280_humidity;BME280_pressure;Samples;Min_cycle;Max_cycle;Signal;HPM_P1;HPM_P2
2023/08/28 00:00:30;;;;;;;;;;;23.40;99.90;;;;;;4592351;19;19975;-60
2023/08/28 00:02:24;;;;;;;;;;;23.40;99.90;;;;;;4592348;19;19911;-59
2023/08/28 00:03:58;;;;;;;;;;;23.40;99.90;;;;;;4591414;19;19915;-59
2023/08/28 00:05:33;;;;;;;;;;;23.40;99.90;;;;;;4592304;19;19919;-59
2023/08/28 00:07:06;;;;;;;;;;;23.40;99.90;;;;;;4592206;19;19926;-59
2023/08/28 00:08:39;;;;;;;;;;;23.40;99.90;;;;;;4591591;19;20310;-61
2023/08/28 00:10:15;;;;;;;;;;;23.40;99.90;;;;;;4590976;19;19922;-59
2023/08/28 00:11:48;;;;;;;;;;;23.40;99.90;;;;;;4591861;19;19919;-60
2023/08/28 00:13:22;;;;;;;;;;;23.40;99.90;;;;;;4592128;19;19931;-59
2023/08/28 00:14:56;;;;;;;;;;;23.40;99.90;;;;;;4592058;19;20295;-59
2023/08/28 00:16:31;;;;;;;;;;;23.40;99.90;;;;;;4592085;19;19911;-59
2023/08/28 00:18:06;;;;;;;;;;;23.50;99.90;;;;;;4592048;19;19926;-59
2023/08/28 00:19:40;;;;;;;;;;;23.50;99.90;;;;;;4590833;19;20324;-59
2023/08/28 00:21:14;;;;;;;;;;;23.50;99.90;;;;;;4592007;19;19915;-59
2023/08/28 00:22:47;;;;;;;;;;;23.50;99.90;;;;;;4591993;19;19915;-59
2023/08/28 00:24:22;;;;;;;;;;;23.40;99.90;;;;;;4590601;19;20229;-59
2023/08/28 00:25:56;;;;;;;;;;;23.40;99.90;;;;;;4591953;19;19932;-59
2023/08/28 00:27:30;;;;;;;;;;;23.40;99.90;;;;;;4594476;19;19938;-59
2023/08/28 00:29:05;;;;;;;;;;;23.40;99.90;;;;;;4595563;19;19974;-59
2023/08/28 00:30:38;;;;;;;;;;;23.40;99.90;;;;;;4596475;19;19926;-59
2023/08/28 00:32:12;;;;;;;;;;;23.40;99.90;;;;;;4596418;19;19943;-59
2023/08/28 00:33:47;;;;;;;;;;;23.30;99.90;;;;;;4596383;19;19987;-59
2023/08/28 00:35:21;;;;;;;;;;;23.40;99.90;;;;;;4596338;19;19919;-59
2023/08/28 00:36:54;;;;;;;;;;;23.40;99.90;;;;;;4596300;19;20306;-59
2023/08/28 00:38:28;;;;;;;;;;;23.30;99.90;;;;;;4596077;19;19928;-59
2023/08/28 00:40:01;;;;;;;;;;;23.30;99.90;;;;;;4596285;19;19948;-60
2023/08/28 00:41:38;;;;;;;;;;;23.30;99.90;;;;;;4596244;19;19936;-59
2023/08/28 00:43:13;;;;;;;;;;;23.30;99.90;;;;;;4595786;19;19930;-59
2023/08/28 00:44:47;;;;;;;;;;;23.30;99.90;;;;;;4596153;19;19929;-59
2023/08/28 00:46:20;;;;;;;;;;;23.30;99.90;;;;;;4596096;19;19939;-59
2023/08/28 00:47:56;;;;;;;;;;;23.30;99.90;;;;;;4596111;19;19919;-59
2023/08/28 00:49:30;;;;;;;;;;;23.30;99.90;;;;;;4594770;19;19919;-59
2023/08/28 00:51:04;;;;;;;;;;;23.30;99.90;;;;;;4594718;19;19914;-59
2023/08/28 00:52:38;;;;;;;;;;;23.30;99.90;;;;;;4595695;19;20201;-59
2023/08/28 00:54:12;;;;;;;;;;;23.30;99.90;;;;;;4595979;19;20292;-59
2023/08/28 00:55:45;;;;;;;;;;;23.20;99.90;;;;;;4595966;19;19928;-59
2023/08/28 00:57:22;;;;;;;;;;;23.20;99.90;;;;;;4595985;19;19918;-59
2023/08/28 00:58:57;;;;;;;;;;;23.20;99.90;;;;;;4595221;19;20360;-59
2023/08/28 01:00:30;;;;;;;;;;;23.20;99.90;;;;;;4595848;19;19915;-59
2023/08/28 01:02:05;;;;;;;;;;;23.30;99.90;;;;;;4595832;19;19915;-59
2023/08/28 01:03:38;;;;;;;;;;;23.20;99.90;;;;;;4595025;19;19911;-59
2023/08/28 01:05:12;;;;;;;;;;;23.20;99.90;;;;;;4595735;19;19939;-59
2023/08/28 01:06:46;;;;;;;;;;;23.20;99.90;;;;;;4595706;19;19910;-59
2023/08/28 01:08:23;;;;;;;;;;;23.20;99.90;;;;;;4595710;19;19910;-59
2023/08/28 01:10:23;;;;;;;;;;;23.20;99.90;;;;;;4594163;19;19919;-59
2023/08/28 01:12:04;;;;;;;;;;;23.20;99.90;;;;;;4595274;19;20223;-59
2023/08/28 01:13:43;;;;;;;;;;;23.20;99.90;;;;;;4595503;19;19911;-59
2023/08/28 01:15:17;;;;;;;;;;;23.20;99.90;;;;;;4595625;19;19926;-59
2023/08/28 01:16:52;;;;;;;;;;;23.20;99.90;;;;;;4594584;19;19911;-59
2023/08/28 01:18:27;;;;;;;;;;;23.20;99.90;;;;;;4594967;19;19914;-59
2023/08/28 01:20:00;;;;;;;;;;;23.20;99.90;;;;;;4595452;19;19928;-59
2023/08/28 01:21:34;;;;;;;;;;;23.20;99.90;;;;;;4595426;19;19914;-59
2023/08/28 01:23:26;;;;;;;;;;;23.20;99.90;;;;;;4595152;19;19914;-59
2023/08/28 01:25:04;;;;;;;;;;;23.20;99.90;;;;;;4595335;19;19967;-59
2023/08/28 01:26:38;;;;;;;;;;;23.20;99.90;;;;;;4595398;19;20233;-59
2023/08/28 01:28:14;;;;;;;;;;;23.20;99.90;;;;;;4595272;19;19926;-59
2023/08/28 01:30:04;;;;;;;;;;;23.20;99.90;;;;;;4593827;19;19911;-59
2023/08/28 01:31:38;;;;;;;;;;;23.20;99.90;;;;;;4595273;19;19926;-59
2023/08/28 01:33:11;;;;;;;;;;;23.20;99.90;;;;;;4595153;19;19941;-59
2023/08/28 01:34:45;;;;;;;;;;;23.20;99.90;;;;;;4595133;19;19966;-59
2023/08/28 01:36:20;;;;;;;;;;;23.10;99.90;;;;;;4595141;19;19933;-59
2023/08/28 01:37:57;;;;;;;;;;;23.10;99.90;;;;;;4594135;19;19939;-59
2023/08/28 01:39:32;;;;;;;;;;;23.10;99.90;;;;;;4592665;19;20238;-59
2023/08/28 01:41:11;;;;;;;;;;;23.20;99.90;;;;;;4594724;19;20324;-59
2023/08/28 01:42:45;;;;;;;;;;;23.10;99.90;;;;;;4594973;19;20299;-59
2023/08/28 01:44:18;;;;;;;;;;;23.10;99.90;;;;;;4592379;19;19956;-59
2023/08/28 01:45:55;;;;;;;;;;;23.10;99.90;;;;;;4594580;19;19914;-59
2023/08/28 01:47:30;;;;;;;;;;;23.10;99.90;;;;;;4594897;19;19915;-59
2023/08/28 01:49:03;;;;;;;;;;;23.10;99.90;;;;;;4594123;19;19919;-59
2023/08/28 01:50:38;;;;;;;;;;;23.10;99.90;;;;;;4594854;19;19915;-59
2023/08/28 01:52:12;;;;;;;;;;;23.10;99.90;;;;;;4594784;19;19919;-59
2023/08/28 01:53:45;;;;;;;;;;;23.10;99.90;;;;;;4594771;19;20228;-59
2023/08/28 01:55:25;;;;;;;;;;;23.10;99.90;;;;;;4594739;19;19915;-59
2023/08/28 01:56:58;;;;;;;;;;;23.20;99.90;;;;;;4593487;19;19914;-59
2023/08/28 01:58:32;;;;;;;;;;;23.20;99.90;;;;;;4593075;19;20223;-59
2023/08/28 02:00:07;;;;;;;;;;;23.20;99.90;;;;;;4594301;19;20299;-59
2023/08/28 02:01:41;;;;;;;;;;;23.20;99.90;;;;;;4594574;19;19915;-59
2023/08/28 02:03:15;;;;;;;;;;;23.20;99.90;;;;;;4594293;19;19970;-59
2023/08/28 02:04:50;;;;;;;;;;;23.10;99.90;;;;;;4594571;19;19915;-59
2023/08/28 02:06:24;;;;;;;;;;;23.10;99.90;;;;;;4594535;19;19944;-59
2023/08/28 02:07:57;;;;;;;;;;;23.10;99.90;;;;;;4594476;19;20241;-59
2023/08/28 02:09:32;;;;;;;;;;;23.10;99.90;;;;;;4593193;19;20304;-59
2023/08/28 02:11:06;;;;;;;;;;;23.10;99.90;;;;;;4594451;19;19915;-59
2023/08/28 02:12:39;;;;;;;;;;;23.10;99.90;;;;;;4594446;19;19914;-59
2023/08/28 02:14:15;;;;;;;;;;;23.10;99.90;;;;;;4594329;19;19996;-59
2023/08/28 02:15:48;;;;;;;;;;;23.10;99.90;;;;;;4594368;19;19918;-59
2023/08/28 02:17:21;;;;;;;;;;;23.10;99.90;;;;;;4594273;19;19935;-59
2023/08/28 02:18:56;;;;;;;;;;;23.10;99.90;;;;;;4593685;19;19919;-59
2023/08/28 02:20:29;;;;;;;;;;;23.10;99.90;;;;;;4594238;19;19915;-59
2023/08/28 02:22:02;;;;;;;;;;;23.10;99.90;;;;;;4594239;19;19911;-59
2023/08/28 02:23:39;;;;;;;;;;;23.10;99.90;;;;;;4593598;19;20296;-59
2023/08/28 02:25:12;;;;;;;;;;;23.10;99.90;;;;;;4594119;19;20208;-59
2023/08/28 02:26:46;;;;;;;;;;;23.10;99.90;;;;;;4594072;19;19922;-59
2023/08/28 02:28:21;;;;;;;;;;;23.10;99.90;;;;;;4594043;19;19938;-59
2023/08/28 02:29:55;;;;;;;;;;;23.10;99.90;;;;;;4594024;19;19922;-59
2023/08/28 02:31:29;;;;;;;;;;;23.10;99.90;;;;;;4593979;19;19914;-59
2023/08/28 02:33:04;;;;;;;;;;;23.10;99.90;;;;;;4593950;19;19922;-59
2023/08/28 02:34:37;;;;;;;;;;;23.10;99.90;;;;;;4593920;19;19915;-59
2023/08/28 02:36:10;;;;;;;;;;;23.10;99.90;;;;;;4594189;19;19974;-59
2023/08/28 02:37:45;;;;;;;;;;;23.10;99.90;;;;;;4593846;19;19915;-59
2023/08/28 02:39:18;;;;;;;;;;;23.10;99.90;;;;;;4592991;19;19928;-59
2023/08/28 02:40:51;;;;;;;;;;;23.10;99.90;;;;;;4593703;19;19987;-59
2023/08/28 02:42:26;;;;;;;;;;;23.10;99.90;;;;;;4593703;19;19979;-59
2023/08/28 02:43:59;;;;;;;;;;;23.10;99.90;;;;;;4592944;19;19928;-59
2023/08/28 02:45:38;;;;;;;;;;;23.10;99.90;;;;;;4593660;19;19945;-59
2023/08/28 02:47:13;;;;;;;;;;;23.00;99.90;;;;;;4593667;19;19915;-59
2023/08/28 02:48:46;;;;;;;;;;;23.00;99.90;;;;;;4593286;19;20240;-59
2023/08/28 02:50:20;;;;;;;;;;;23.10;99.90;;;;;;4591601;19;19934;-59
2023/08/28 02:51:55;;;;;;;;;;;23.10;99.90;;;;;;4593523;19;19935;-59
2023/08/28 02:53:29;;;;;;;;;;;23.10;99.90;;;;;;4593529;19;19915;-59
2023/08/28 02:55:02;;;;;;;;;;;23.10;99.90;;;;;;4593477;19;19966;-59
2023/08/28 02:56:41;;;;;;;;;;;23.10;99.90;;;;;;4593447;19;20223;-59
2023/08/28 02:58:15;;;;;;;;;;;23.10;99.90;;;;;;4593403;19;19915;-59
2023/08/28 02:59:48;;;;;;;;;;;23.10;99.90;;;;;;4592351;19;19907;-59
2023/08/28 03:01:23;;;;;;;;;;;23.10;99.90;;;;;;4593370;19;20303;-59
2023/08/28 03:02:57;;;;;;;;;;;23.10;99.90;;;;;;4593350;19;19928;-59
2023/08/28 03:04:30;;;;;;;;;;;23.00;99.90;;;;;;4592227;19;19926;-59
2023/08/28 03:06:05;;;;;;;;;;;23.00;99.90;;;;;;4593287;19;19929;-59
2023/08/28 03:07:39;;;;;;;;;;;23.00;99.90;;;;;;4593263;19;20364;-59
2023/08/28 03:09:15;;;;;;;;;;;23.00;99.90;;;;;;4592272;19;20208;-59
2023/08/28 03:10:53;;;;;;;;;;;23.00;99.90;;;;;;4593265;19;20249;-59
2023/08/28 03:12:26;;;;;;;;;;;23.00;99.90;;;;;;4593180;19;19919;-59
2023/08/28 03:14:00;;;;;;;;;;;23.00;99.90;;;;;;4593137;19;19940;-59
2023/08/28 03:15:35;;;;;;;;;;;22.90;99.90;;;;;;4593112;19;19915;-59
2023/08/28 03:17:08;;;;;;;;;;;22.90;99.90;;;;;;4593100;19;19915;-59
2023/08/28 03:18:42;;;;;;;;;;;22.90;99.90;;;;;;4592778;19;19914;-59
2023/08/28 03:20:17;;;;;;;;;;;22.90;99.90;;;;;;4593036;19;19914;-59
2023/08/28 03:21:51;;;;;;;;;;;23.00;99.90;;;;;;4593031;19;20246;-59
2023/08/28 03:23:24;;;;;;;;;;;22.90;99.90;;;;;;4592661;19;19989;-59
2023/08/28 03:24:59;;;;;;;;;;;23.00;99.90;;;;;;4591669;19;19911;-59
2023/08/28 03:26:32;;;;;;;;;;;23.00;99.90;;;;;;4591716;19;19915;-59
2023/08/28 03:28:10;;;;;;;;;;;23.00;99.90;;;;;;4592521;19;19949;-59
2023/08/28 03:29:46;;;;;;;;;;;23.00;99.90;;;;;;4591879;19;19926;-59
2023/08/28 03:31:20;;;;;;;;;;;23.00;99.90;;;;;;4592827;19;19915;-59
2023/08/28 03:32:54;;;;;;;;;;;23.00;99.90;;;;;;4592801;19;19915;-59
2023/08/28 03:34:28;;;;;;;;;;;23.00;99.90;;;;;;4592768;19;19918;-59
2023/08/28 03:36:01;;;;;;;;;;;23.00;99.90;;;;;;4592729;19;19915;-59
2023/08/28 03:37:35;;;;;;;;;;;23.00;99.90;;;;;;4592740;19;19923;-59
2023/08/28 03:39:09;;;;;;;;;;;23.00;99.90;;;;;;4592125;19;20264;-59
2023/08/28 03:40:43;;;;;;;;;;;22.90;99.90;;;;;;4592690;19;19918;-59
2023/08/28 03:42:17;;;;;;;;;;;22.90;99.90;;;;;;4592659;19;19924;-59
2023/08/28 03:43:51;;;;;;;;;;;22.90;99.90;;;;;;4592018;19;19922;-59
2023/08/28 03:45:25;;;;;;;;;;;22.90;99.90;;;;;;4592652;19;19911;-59
2023/08/28 03:46:59;;;;;;;;;;;22.90;99.90;;;;;;4592638;19;19919;-59
2023/08/28 03:48:34;;;;;;;;;;;22.90;99.90;;;;;;4592400;19;19929;-59
2023/08/28 03:50:08;;;;;;;;;;;23.00;99.90;;;;;;4592576;19;19922;-59
2023/08/28 03:51:43;;;;;;;;;;;23.00;99.90;;;;;;4592520;19;19944;-58
2023/08/28 03:53:18;;;;;;;;;;;23.10;99.90;;;;;;4592565;19;19915;-58
2023/08/28 03:54:52;;;;;;;;;;;23.10;99.90;;;;;;4592469;19;19928;-58
2023/08/28 03:56:26;;;;;;;;;;;23.20;99.90;;;;;;4592474;19;19919;-59
2023/08/28 03:58:02;;;;;;;;;;;23.30;99.90;;;;;;4592466;19;19970;-58
2023/08/28 03:59:35;;;;;;;;;;;23.30;99.90;;;;;;4591307;19;19919;-59
2023/08/28 04:01:08;;;;;;;;;;;23.40;99.90;;;;;;4593842;19;19932;-59
2023/08/28 04:02:42;;;;;;;;;;;23.40;99.90;;;;;;4597175;19;19934;-59
2023/08/28 04:04:17;;;;;;;;;;;23.50;99.90;;;;;;4595964;19;20226;-59
2023/08/28 04:05:50;;;;;;;;;;;23.50;99.90;;;;;;4597040;19;20355;-59
2023/08/28 04:07:24;;;;;;;;;;;23.50;99.90;;;;;;4596999;19;19975;-59
2023/08/28 04:08:58;;;;;;;;;;;23.50;99.90;;;;;;4595884;19;19935;-59
2023/08/28 04:10:31;;;;;;;;;;;23.50;99.90;;;;;;4596964;19;19974;-59
2023/08/28 04:12:06;;;;;;;;;;;23.50;99.90;;;;;;4596873;19;20005;-59
2023/08/28 04:13:39;;;;;;;;;;;23.50;99.90;;;;;;4596817;19;19919;-59
2023/08/28 04:15:12;;;;;;;;;;;23.50;99.90;;;;;;4596785;19;19923;-60
2023/08/28 04:16:47;;;;;;;;;;;23.70;99.90;;;;;;4596728;19;20215;-60
2023/08/28 04:18:20;;;;;;;;;;;23.70;99.90;;;;;;4596714;19;19919;-59
2023/08/28 04:19:56;;;;;;;;;;;23.80;99.90;;;;;;4594936;19;19915;-60
2023/08/28 04:21:30;;;;;;;;;;;23.80;99.90;;;;;;4596648;19;19932;-60
2023/08/28 04:23:03;;;;;;;;;;;23.70;99.90;;;;;;4596612;19;19915;-60
2023/08/28 04:24:36;;;;;;;;;;;23.60;99.90;;;;;;4595002;19;19943;-59
2023/08/28 04:26:13;;;;;;;;;;;23.60;99.90;;;;;;4596376;19;19970;-61
2023/08/28 04:27:46;;;;;;;;;;;23.50;99.90;;;;;;4596528;19;20002;-61
2023/08/28 04:29:19;;;;;;;;;;;23.50;99.90;;;;;;4595473;19;19915;-62
2023/08/28 04:30:54;;;;;;;;;;;23.50;99.90;;;;;;4596788;19;20292;-61
2023/08/28 04:32:28;;;;;;;;;;;23.40;99.90;;;;;;4596770;19;19910;-62
2023/08/28 04:34:03;;;;;;;;;;;23.40;99.90;;;;;;4596386;19;19932;-60
2023/08/28 04:35:38;;;;;;;;;;;23.40;99.90;;;;;;4596325;19;19924;-60
2023/08/28 04:37:11;;;;;;;;;;;23.40;99.90;;;;;;4596252;19;20204;-60
2023/08/28 04:38:44;;;;;;;;;;;23.40;99.90;;;;;;4595927;19;19910;-60
2023/08/28 04:40:19;;;;;;;;;;;23.50;99.90;;;;;;4596237;19;20279;-60
2023/08/28 04:41:53;;;;;;;;;;;23.50;99.90;;;;;;4596264;19;19981;-60
2023/08/28 04:43:27;;;;;;;;;;;23.50;99.90;;;;;;4596202;19;20208;-60
2023/08/28 04:45:01;;;;;;;;;;;23.50;99.90;;;;;;4596265;19;19982;-60
2023/08/28 04:46:35;;;;;;;;;;;23.60;99.90;;;;;;4596143;19;19931;-60
2023/08/28 04:48:08;;;;;;;;;;;23.60;99.90;;;;;;4596107;19;19914;-60
2023/08/28 04:49:43;;;;;;;;;;;23.60;99.90;;;;;;4594651;19;19925;-60
2023/08/28 04:51:16;;;;;;;;;;;23.70;99.90;;;;;;4596402;19;19914;-60
2023/08/28 04:52:49;;;;;;;;;;;23.70;99.90;;;;;;4596038;19;19919;-60
2023/08/28 04:54:24;;;;;;;;;;;23.70;99.90;;;;;;4596061;19;20219;-60
2023/08/28 04:55:58;;;;;;;;;;;23.70;99.90;;;;;;4595990;19;19918;-60
2023/08/28 04:57:32;;;;;;;;;;;23.70;99.90;;;;;;4594581;19;19936;-60
2023/08/28 04:59:07;;;;;;;;;;;23.70;99.90;;;;;;4594774;19;19915;-60
2023/08/28 05:00:41;;;;;;;;;;;23.70;99.90;;;;;;4595899;19;19967;-60
2023/08/28 05:02:14;;;;;;;;;;;23.70;99.90;;;;;;4596180;19;19927;-60
2023/08/28 05:03:49;;;;;;;;;;;23.70;99.90;;;;;;4595053;19;20292;-60
2023/08/28 05:05:22;;;;;;;;;;;23.70;99.90;;;;;;4595770;19;20296;-60
2023/08/28 05:06:56;;;;;;;;;;;23.70;99.90;;;;;;4595759;19;19927;-60
2023/08/28 05:08:31;;;;;;;;;;;23.70;99.90;;;;;;4595520;19;19942;-60
2023/08/28 05:10:05;;;;;;;;;;;23.70;99.90;;;;;;4594315;19;19929;-60
2023/08/28 05:11:38;;;;;;;;;;;23.70;99.90;;;;;;4595639;19;20279;-60
2023/08/28 05:13:13;;;;;;;;;;;23.70;99.90;;;;;;4593894;19;20343;-60
2023/08/28 05:14:48;;;;;;;;;;;23.70;99.90;;;;;;4595584;19;20297;-60
2023/08/28 05:16:22;;;;;;;;;;;23.70;99.90;;;;;;4595564;19;19915;-60
2023/08/28 05:17:56;;;;;;;;;;;23.70;99.90;;;;;;4594171;19;19919;-60
2023/08/28 05:19:29;;;;;;;;;;;23.70;99.90;;;;;;4594103;19;19911;-60
2023/08/28 05:21:03;;;;;;;;;;;23.60;99.90;;;;;;4595417;19;19914;-60
2023/08/28 05:22:38;;;;;;;;;;;23.60;99.90;;;;;;4595737;19;19915;-60
2023/08/28 05:24:12;;;;;;;;;;;23.60;99.90;;;;;;4594671;19;19918;-60
2023/08/28 05:25:46;;;;;;;;;;;23.50;99.90;;;;;;4595336;19;20259;-60
2023/08/28 05:27:21;;;;;;;;;;;23.50;99.90;;;;;;4595285;19;19915;-60
2023/08/28 05:28:54;;;;;;;;;;;23.50;99.90;;;;;;4594701;19;19932;-60
2023/08/28 05:30:28;;;;;;;;;;;23.50;99.90;;;;;;4595283;19;19914;-60
2023/08/28 05:32:18;;;;;;;;;;;23.50;99.90;;;;;;4595240;19;19911;-60
2023/08/28 05:33:51;;;;;;;;;;;23.40;99.90;;;;;;4595140;19;19926;-60
2023/08/28 05:35:25;;;;;;;;;;;23.40;99.90;;;;;;4595488;19;19911;-60
2023/08/28 05:37:00;;;;;;;;;;;23.40;99.90;;;;;;4595392;19;19926;-60
2023/08/28 05:38:33;;;;;;;;;;;23.40;99.90;;;;;;4595242;19;19940;-60
2023/08/28 05:40:08;;;;;;;;;;;23.40;99.90;;;;;;4595070;19;19918;-60
2023/08/28 05:41:46;;;;;;;;;;;23.40;99.90;;;;;;4595041;19;19918;-60
2023/08/28 05:43:20;;;;;;;;;;;23.40;99.90;;;;;;4594777;19;19914;-60
2023/08/28 05:44:54;;;;;;;;;;;23.30;99.90;;;;;;4595244;19;20254;-60
2023/08/28 05:46:29;;;;;;;;;;;23.40;99.90;;;;;;4594915;19;19922;-60
2023/08/28 05:48:03;;;;;;;;;;;23.40;99.90;;;;;;4594832;19;19921;-60
2023/08/28 05:49:36;;;;;;;;;;;23.30;99.90;;;;;;4593704;19;19926;-60
2023/08/28 05:51:12;;;;;;;;;;;23.30;99.90;;;;;;4594805;19;19918;-60
2023/08/28 05:52:45;;;;;;;;;;;23.30;99.90;;;;;;4594830;19;19911;-60
2023/08/28 05:54:19;;;;;;;;;;;23.30;99.90;;;;;;4594758;19;20227;-60
2023/08/28 05:55:54;;;;;;;;;;;23.30;99.90;;;;;;4594710;19;19928;-60
2023/08/28 05:57:28;;;;;;;;;;;23.30;99.90;;;;;;4595013;19;20318;-60
2023/08/28 05:59:02;;;;;;;;;;;23.30;99.90;;;;;;4594367;19;19911;-60
2023/08/28 06:00:37;;;;;;;;;;;23.30;99.90;;;;;;4594526;19;19922;-60
2023/08/28 06:02:12;;;;;;;;;;;23.30;99.90;;;;;;4594669;19;19926;-60
2023/08/28 06:03:46;;;;;;;;;;;23.30;99.90;;;;;;4594006;19;19918;-60
2023/08/28 06:05:21;;;;;;;;;;;23.30;99.90;;;;;;4593281;19;19915;-60
2023/08/28 06:06:55;;;;;;;;;;;23.30;99.90;;;;;;4594189;19;19915;-60
2023/08/28 06:08:28;;;;;;;;;;;23.30;99.90;;;;;;4594282;19;19929;-61
2023/08/28 06:10:04;;;;;;;;;;;23.30;99.90;;;;;;4593104;19;19928;-60
2023/08/28 06:11:37;;;;;;;;;;;23.30;99.90;;;;;;4594359;19;19944;-60
2023/08/28 06:13:12;;;;;;;;;;;23.30;99.90;;;;;;4594314;19;19918;-60
2023/08/28 06:14:46;;;;;;;;;;;23.30;99.90;;;;;;4593947;19;19914;-60
2023/08/28 06:16:19;;;;;;;;;;;23.30;99.90;;;;;;4594203;19;19915;-60
2023/08/28 06:17:57;;;;;;;;;;;23.20;99.90;;;;;;4594444;19;19927;-60
2023/08/28 06:20:04;;;;;;;;;;;23.20;99.90;;;;;;4592932;19;20213;-60
2023/08/28 06:22:19;;;;;;;;;;;23.10;99.90;;;;;;4592524;19;19911;-60
2023/08/28 06:24:20;;;;;;;;;;;23.10;99.90;;;;;;4590778;19;19930;-60
2023/08/28 06:25:55;;;;;;;;;;;23.00;99.90;;;;;;4594030;19;19919;-60
2023/08/28 06:27:30;;;;;;;;;;;23.00;99.90;;;;;;4593802;19;20228;-60
2023/08/28 06:29:04;;;;;;;;;;;23.00;99.90;;;;;;4593136;19;19910;-60
2023/08/28 06:30:39;;;;;;;;;;;23.00;99.90;;;;;;4594002;19;20229;-60
2023/08/28 06:32:13;;;;;;;;;;;23.00;99.90;;;;;;4593763;19;19978;-60
2023/08/28 06:33:47;;;;;;;;;;;23.00;99.90;;;;;;4593914;19;19940;-60
2023/08/28 06:35:21;;;;;;;;;;;23.00;99.90;;;;;;4593841;19;20219;-60
2023/08/28 06:36:55;;;;;;;;;;;22.90;99.90;;;;;;4594161;19;19919;-59
2023/08/28 06:38:28;;;;;;;;;;;22.90;99.90;;;;;;4593693;19;19922;-59
2023/08/28 06:40:03;;;;;;;;;;;22.90;99.90;;;;;;4593796;19;19911;-59
2023/08/28 06:41:37;;;;;;;;;;;22.90;99.90;;;;;;4593732;19;19953;-59
2023/08/28 06:43:10;;;;;;;;;;;22.90;99.90;;;;;;4593549;19;19915;-61
2023/08/28 06:44:45;;;;;;;;;;;22.90;99.90;;;;;;4592524;19;19911;-62
2023/08/28 06:46:18;;;;;;;;;;;22.90;99.90;;;;;;4593550;19;19915;-59
2023/08/28 06:47:52;;;;;;;;;;;22.90;99.90;;;;;;4593556;19;19914;-61
2023/08/28 06:49:27;;;;;;;;;;;22.90;99.90;;;;;;4592641;19;19914;-59
2023/08/28 06:51:01;;;;;;;;;;;23.10;99.90;;;;;;4592703;19;19918;-59
2023/08/28 06:52:36;;;;;;;;;;;23.10;99.90;;;;;;4593658;19;20240;-61
2023/08/28 06:54:11;;;;;;;;;;;23.10;99.90;;;;;;4593329;19;20227;-59
2023/08/28 06:55:45;;;;;;;;;;;23.10;99.90;;;;;;4593112;19;19914;-60
2023/08/28 06:57:19;;;;;;;;;;;23.00;99.90;;;;;;4593069;19;19919;-62
2023/08/28 06:58:54;;;;;;;;;;;23.00;99.90;;;;;;4592677;19;20299;-59
2023/08/28 07:00:27;;;;;;;;;;;22.90;99.90;;;;;;4593251;19;19974;-60
2023/08/28 07:02:00;;;;;;;;;;;22.90;99.90;;;;;;4591753;19;19966;-62
2023/08/28 07:03:35;;;;;;;;;;;22.90;99.90;;;;;;4592448;19;19915;-59
2023/08/28 07:05:09;;;;;;;;;;;22.90;99.90;;;;;;4593226;19;19919;-60
2023/08/28 07:06:42;;;;;;;;;;;22.90;99.90;;;;;;4592243;19;19940;-60
2023/08/28 07:08:17;;;;;;;;;;;22.90;99.90;;;;;;4592432;19;19914;-61
2023/08/28 07:09:50;;;;;;;;;;;22.90;99.90;;;;;;4591506;19;20229;-59
2023/08/28 07:11:23;;;;;;;;;;;22.90;99.90;;;;;;4593398;19;20300;-59
2023/08/28 07:12:58;;;;;;;;;;;22.90;99.90;;;;;;4592968;19;19911;-60
2023/08/28 07:14:32;;;;;;;;;;;22.80;99.90;;;;;;4592580;19;19939;-60
2023/08/28 07:16:06;;;;;;;;;;;22.80;99.90;;;;;;4592419;19;19979;-59
2023/08/28 07:17:41;;;;;;;;;;;22.90;99.90;;;;;;4591430;19;19986;-59
2023/08/28 07:19:15;;;;;;;;;;;22.90;99.90;;;;;;4591438;19;19911;-59
2023/08/28 07:20:48;;;;;;;;;;;22.90;99.90;;;;;;4592716;19;20688;-59
2023/08/28 07:22:23;;;;;;;;;;;22.80;99.90;;;;;;4592982;19;19919;-59
2023/08/28 07:23:57;;;;;;;;;;;22.80;99.90;;;;;;4592410;19;19918;-60
2023/08/28 07:25:31;;;;;;;;;;;22.80;99.90;;;;;;4592981;19;20229;-59
2023/08/28 07:27:06;;;;;;;;;;;22.80;99.90;;;;;;4592949;19;20200;-61
2023/08/28 07:28:39;;;;;;;;;;;22.80;99.90;;;;;;4591742;19;20374;-61
2023/08/28 07:30:13;;;;;;;;;;;22.80;99.90;;;;;;4592518;19;19918;-59
2023/08/28 07:31:48;;;;;;;;;;;22.80;99.90;;;;;;4592605;19;19935;-61
2023/08/28 07:33:23;;;;;;;;;;;22.80;99.90;;;;;;4592839;19;19922;-59
2023/08/28 07:34:59;;;;;;;;;;;22.80;99.90;;;;;;4592857;19;19911;-61
2023/08/28 07:36:37;;;;;;;;;;;22.80;99.90;;;;;;4591777;19;19915;-60
2023/08/28 07:38:10;;;;;;;;;;;22.80;99.90;;;;;;4592563;19;19939;-59
2023/08/28 07:39:43;;;;;;;;;;;22.80;99.90;;;;;;4591673;19;19939;-59
2023/08/28 07:41:19;;;;;;;;;;;22.80;99.90;;;;;;4592743;19;19915;-60
2023/08/28 07:42:53;;;;;;;;;;;22.80;99.90;;;;;;4592773;19;19932;-60
2023/08/28 07:44:27;;;;;;;;;;;22.80;99.90;;;;;;4591726;19;19919;-60
2023/08/28 07:46:04;;;;;;;;;;;22.80;99.90;;;;;;4592613;19;19911;-61
2023/08/28 07:47:38;;;;;;;;;;;22.80;99.90;;;;;;4592656;19;19914;-61
2023/08/28 07:49:11;;;;;;;;;;;22.80;99.90;;;;;;4591968;19;19915;-61
2023/08/28 07:50:47;;;;;;;;;;;22.80;99.90;;;;;;4592629;19;19923;-61
2023/08/28 07:52:20;;;;;;;;;;;22.80;99.90;;;;;;4592649;19;19919;-61
2023/08/28 07:53:55;;;;;;;;;;;22.80;99.90;;;;;;4592583;19;19919;-60
2023/08/28 07:55:30;;;;;;;;;;;22.80;99.90;;;;;;4592587;19;20310;-61
2023/08/28 07:57:04;;;;;;;;;;;22.80;99.90;;;;;;4592678;19;19914;-60
2023/08/28 07:58:37;;;;;;;;;;;22.80;99.90;;;;;;4592238;19;20295;-60
2023/08/28 08:00:13;;;;;;;;;;;22.80;99.90;;;;;;4592433;19;19911;-60
2023/08/28 08:01:47;;;;;;;;;;;22.80;99.90;;;;;;4592391;19;19915;-60
2023/08/28 08:03:21;;;;;;;;;;;22.80;99.90;;;;;;4592326;19;19911;-60
2023/08/28 08:04:56;;;;;;;;;;;22.80;99.90;;;;;;4592353;19;19919;-61
2023/08/28 08:06:30;;;;;;;;;;;22.80;99.90;;;;;;4592297;19;19918;-61
2023/08/28 08:08:04;;;;;;;;;;;22.80;99.90;;;;;;4592296;19;19971;-60
2023/08/28 08:09:39;;;;;;;;;;;22.80;99.90;;;;;;4590813;19;19922;-61
2023/08/28 08:11:12;;;;;;;;;;;22.80;99.90;;;;;;4592184;19;20236;-60
2023/08/28 08:12:46;;;;;;;;;;;22.80;99.90;;;;;;4592065;19;19914;-60
2023/08/28 08:14:22;;;;;;;;;;;22.80;99.90;;;;;;4592219;19;20311;-60
2023/08/28 08:15:56;;;;;;;;;;;22.80;99.90;;;;;;4592164;19;19971;-60
2023/08/28 08:17:29;;;;;;;;;;;22.80;99.90;;;;;;4592117;19;19915;-61
2023/08/28 08:19:05;;;;;;;;;;;22.80;99.90;;;;;;4591451;19;20295;-61
2023/08/28 08:20:38;;;;;;;;;;;22.80;99.90;;;;;;4592044;19;19921;-60
2023/08/28 08:22:12;;;;;;;;;;;22.80;99.90;;;;;;4591974;19;19915;-61
2023/08/28 08:23:48;;;;;;;;;;;22.80;99.90;;;;;;4591506;19;20300;-60
2023/08/28 08:25:22;;;;;;;;;;;22.80;99.90;;;;;;4591985;19;19915;-61
2023/08/28 08:26:56;;;;;;;;;;;22.80;99.90;;;;;;4591950;19;19915;-60
2023/08/28 08:28:32;;;;;;;;;;;22.80;99.90;;;;;;4591810;19;19925;-60
2023/08/28 08:30:07;;;;;;;;;;;22.80;99.90;;;;;;4591844;19;19943;-60
2023/08/28 08:31:40;;;;;;;;;;;22.80;99.90;;;;;;4591842;19;19922;-62
2023/08/28 09:50:44;;;;;;;;;;;23.40;99.90;;;;;;4552830;19;20316;-59
2023/08/28 09:52:26;;;;;;;;;;;23.30;99.90;;;;;;4594878;19;19932;-59
2023/08/28 09:54:06;;;;;;;;;;;23.30;99.90;;;;;;4594884;19;19921;-59
2023/08/28 09:55:41;;;;;;;;;;;23.30;99.90;;;;;;4594803;19;19926;-59
2023/08/28 09:57:19;;;;;;;;;;;23.30;99.90;;;;;;4594925;19;19939;-59
2023/08/28 09:58:54;;;;;;;;;;;23.30;99.90;;;;;;4594015;19;19932;-59
2023/08/28 10:00:28;;;;;;;;;;;22.60;99.90;;;;;;4593080;19;19911;-59
2023/08/28 10:02:03;;;;;;;;;;;21.30;99.90;;;;;;4594284;19;19936;-59
2023/08/28 10:03:38;;;;;;;;;;;20.80;99.90;;;;;;4593125;19;20386;-59
2023/08/28 10:05:12;;;;;;;;;;;20.40;99.90;;;;;;4594228;19;19970;-59
2023/08/28 10:06:50;;;;;;;;;;;20.30;99.90;;;;;;4594530;19;19911;-60
2023/08/28 10:08:25;;;;;;;;;;;20.30;99.90;;;;;;4594552;19;20301;-59
2023/08/28 10:09:59;;;;;;;;;;;20.20;99.90;;;;;;4594500;19;19966;-60
2023/08/28 10:11:38;;;;;;;;;;;20.20;99.90;;;;;;4592272;19;19918;-60
2023/08/28 10:13:20;;;;;;;;;;;20.20;99.90;;;;;;4594198;19;19919;-59
2023/08/28 10:14:54;;;;;;;;;;;20.20;99.90;;;;;;4594441;19;19918;-61
2023/08/28 10:16:28;;;;;;;;;;;20.20;99.90;;;;;;4594298;19;20226;-59
2023/08/28 10:18:08;;;;;;;;;;;20.20;99.90;;;;;;4594275;19;20203;-59
2023/08/28 10:19:47;;;;;;;;;;;20.20;99.90;;;;;;4594249;19;19918;-59
2023/08/28 10:21:21;;;;;;;;;;;20.20;99.90;;;;;;4592007;19;19923;-59
2023/08/28 10:22:57;;;;;;;;;;;20.20;99.90;;;;;;4593857;19;19926;-59
2023/08/28 10:24:31;;;;;;;;;;;20.20;99.90;;;;;;4593230;19;19914;-59
2023/08/28 10:26:05;;;;;;;;;;;20.20;99.90;;;;;;4594127;19;19911;-59
2023/08/28 10:27:40;;;;;;;;;;;20.20;99.90;;;;;;4594029;19;19919;-59
2023/08/28 10:29:18;;;;;;;;;;;20.20;99.90;;;;;;4594101;19;19915;-59